Time;durP1;ratioP1;P1;durP2;ratioP2;P2;SDS_P1;SDS_P2;PMS_P1;PMS_P2;Temp;Humidity;BMP_temperature;BMP_pressure;BME280_temperature;BME280_humidity;BME280_pressure;Samples;Min_cycle;Max_cycle;Signal;HPM_P1;HPM_P2
2022/02/08 00:00:19;;;;;;;38.73;21.82;;;;;;;1.23;100.00;99009.57;1716517;83;21065;-69
2022/02/08 00:02:51;;;;;;;40.00;21.57;;;;;;;1.18;100.00;99012.69;1716884;83;21041;-70
2022/02/08 00:05:17;;;;;;;38.40;19.65;;;;;;;1.18;100.00;99013.98;1716053;83;21148;-69
2022/02/08 00:07:49;;;;;;;33.67;17.92;;;;;;;1.18;100.00;99013.98;1717275;83;21041;-69
2022/02/08 00:10:14;;;;;;;34.92;18.40;;;;;;;1.14;100.00;99021.39;1716655;82;21033;-69
2022/02/08 00:12:41;;;;;;;33.38;17.20;;;;;;;1.16;100.00;99021.78;1717148;83;21615;-69
2022/02/08 00:15:09;;;;;;;36.70;18.10;;;;;;;1.13;100.00;99024.85;1716649;83;21151;-68
2022/02/08 00:17:35;;;;;;;31.50;17.23;;;;;;;1.11;100.00;99024.05;1716655;83;21085;-69
2022/02/08 00:20:07;;;;;;;26.77;14.60;;;;;;;1.08;100.00;99018.89;1716808;83;21133;-68
2022/02/08 00:22:36;;;;;;;28.00;15.43;;;;;;;1.07;100.00;99030.16;1717314;83;21045;-68
2022/02/08 00:25:04;;;;;;;27.80;14.83;;;;;;;1.08;100.00;99027.97;1716752;82;21061;-68
2022/02/08 00:27:31;;;;;;;26.35;13.55;;;;;;;1.09;100.00;99033.59;1717320;83;21212;-69
2022/02/08 00:29:58;;;;;;;21.50;12.28;;;;;;;1.05;100.00;99041.84;1716778;83;21034;-69
2022/02/08 00:32:24;;;;;;;22.00;11.85;;;;;;;1.06;100.00;99044.87;1717548;83;21398;-68
2022/02/08 00:34:53;;;;;;;21.65;11.97;;;;;;;1.07;100.00;99050.91;1716417;83;21050;-69
2022/02/08 00:37:19;;;;;;;18.62;10.38;;;;;;;1.07;100.00;99049.61;1717118;83;21036;-69
2022/02/08 00:39:47;;;;;;;20.30;10.90;;;;;;;1.02;100.00;99062.20;1717256;83;20982;-69
2022/02/08 00:42:15;;;;;;;17.52;9.35;;;;;;;0.96;100.00;99062.28;1716779;83;21586;-68
2022/02/08 00:44:55;;;;;;;19.67;11.57;;;;;;;0.96;100.00;99066.61;1716426;83;21154;-70
2022/02/08 00:47:27;;;;;;;19.17;10.23;;;;;;;0.94;100.00;99069.22;1716101;83;21537;-67
2022/02/08 00:49:47;;;;;;;;;;;;;;;0.94;100.00;99071.81;1712572;83;21074;-66
2022/02/08 00:52:17;;;;;;;16.45;9.55;;;;;;;0.98;100.00;99070.05;1710286;83;20151;-66
2022/02/08 00:54:50;;;;;;;14.35;7.40;;;;;;;0.94;100.00;99071.81;1711298;82;21026;-67
2022/02/08 00:57:17;;;;;;;13.35;7.20;;;;;;;0.98;100.00;99073.48;1710205;83;21145;-66
2022/02/08 00:59:44;;;;;;;14.30;8.18;;;;;;;1.01;100.00;99073.88;1709167;83;21053;-67
2022/02/08 01:02:11;;;;;;;11.10;6.78;;;;;;;1.03;100.00;99073.41;1709197;83;21033;-68
2022/02/08 01:04:38;;;;;;;19.00;9.20;;;;;;;1.02;100.00;99075.16;1710610;83;21613;-68
2022/02/08 01:07:06;;;;;;;14.18;6.95;;;;;;;1.02;100.00;99076.91;1709363;83;21606;-68
2022/02/08 01:09:47;;;;;;;11.53;6.28;;;;;;;1.02;100.00;99080.34;1708670;82;21128;-67
2022/02/08 01:12:09;;;;;;;15.63;7.60;;;;;;;1.03;100.00;99084.64;1711958;82;21057;-68
2022/02/08 01:14:39;;;;;;;10.18;6.35;;;;;;;1.01;100.00;99091.61;1706611;83;21073;-65
2022/02/08 01:17:06;;;;;;;10.93;5.45;;;;;;;1.00;100.00;99096.36;1707935;83;21037;-67
2022/02/08 01:19:34;;;;;;;11.75;6.15;;;;;;;0.99;100.00;99096.38;1709241;83;21613;-68
2022/02/08 01:22:01;;;;;;;9.10;5.62;;;;;;;0.99;100.00;99098.55;1708676;83;21122;-68
2022/02/08 01:24:28;;;;;;;14.95;7.42;;;;;;;0.99;100.00;99095.95;1708921;82;21128;-67
2022/02/08 01:27:08;;;;;;;9.95;5.67;;;;;;;0.99;100.00;99101.14;1708228;83;21475;-67
2022/02/08 01:32:13;;;;;;;14.95;7.55;;;;;;;1.03;100.00;99114.45;1708832;82;22248;-68
2022/02/08 01:37:24;;;;;;;7.17;4.60;;;;;;;1.02;100.00;99115.34;1707809;83;21127;-68
2022/02/08 01:40:02;;;;;;;9.03;4.80;;;;;;;0.97;100.00;99121.05;1712239;82;21053;-68
2022/02/08 01:42:27;;;;;;;7.72;4.78;;;;;;;0.92;100.00;99120.27;1706521;83;21073;-69
2022/02/08 01:44:59;;;;;;;;;;;;;;;0.95;100.00;99122.80;1711343;82;22185;-68
2022/02/08 01:47:28;;;;;;;8.03;5.33;;;;;;;0.94;100.00;99134.03;1708518;82;21125;-67
2022/02/08 01:49:58;;;;;;;6.35;3.87;;;;;;;0.93;100.00;99142.70;1707303;81;21490;-67
2022/02/08 01:52:19;;;;;;;6.12;3.98;;;;;;;0.92;100.00;99141.00;1706964;83;21101;-68
2022/02/08 01:54:47;;;;;;;6.55;3.98;;;;;;;0.91;100.00;99149.64;1707185;83;21005;-67
2022/02/08 01:57:13;;;;;;;5.85;3.75;;;;;;;0.89;100.00;99151.39;1709357;83;21038;-67
2022/02/08 01:59:40;;;;;;;9.28;5.20;;;;;;;0.89;100.00;99144.91;1709309;83;21498;-69
2022/02/08 02:02:07;;;;;;;6.08;3.33;;;;;;;0.88;100.00;99141.91;1709133;83;21045;-68
2022/02/08 02:04:33;;;;;;;6.15;3.98;;;;;;;0.92;100.00;99147.48;1707220;83;21037;-68
2022/02/08 02:07:01;;;;;;;9.93;3.87;;;;;;;0.89;100.00;99148.80;1710113;83;21062;-69
2022/02/08 02:09:28;;;;;;;6.53;3.45;;;;;;;0.91;100.00;99159.16;1708587;82;21041;-68
2022/02/08 02:11:56;;;;;;;6.22;3.77;;;;;;;0.88;100.00;99156.17;1713137;83;21876;-68
2022/02/08 02:14:23;;;;;;;8.55;3.83;;;;;;;0.83;100.00;99157.53;1711565;83;21007;-68
2022/02/08 02:16:57;;;;;;;7.58;4.08;;;;;;;0.81;100.00;99161.02;1712643;83;21058;-68
2022/02/08 02:19:24;;;;;;;9.38;4.83;;;;;;;0.79;100.00;99168.80;1712808;82;21041;-68
2022/02/08 02:21:49;;;;;;;7.17;3.37;;;;;;;0.80;100.00;99172.25;1708829;83;21072;-67
2022/02/08 02:24:16;;;;;;;9.15;3.58;;;;;;;0.81;100.00;99167.50;1706411;82;21961;-68
2022/02/08 02:26:43;;;;;;;7.00;3.15;;;;;;;0.76;100.00;99171.45;1710935;83;21073;-69
2022/02/08 02:29:15;;;;;;;7.22;3.10;;;;;;;0.74;100.00;99171.05;1708018;82;21056;-68
2022/02/08 02:31:43;;;;;;;7.72;3.90;;;;;;;0.73;100.00;99175.80;1700983;83;21033;-69
2022/02/08 02:34:10;;;;;;;7.22;3.00;;;;;;;0.69;100.00;99179.30;1708153;83;21072;-70
2022/02/08 02:36:40;;;;;;;10.10;4.80;;;;;;;0.70;100.00;99184.47;1707712;83;21136;-68
2022/02/08 02:39:08;;;;;;;8.00;3.70;;;;;;;0.68;100.00;99188.81;1710435;83;20999;-68
2022/02/08 02:41:41;;;;;;;5.08;2.80;;;;;;;0.71;100.00;99185.32;1709560;82;21106;-68
2022/02/08 02:44:10;;;;;;;6.22;3.67;;;;;;;0.70;100.00;99195.28;1692545;83;21117;-68
2022/02/08 02:46:38;;;;;;;3.98;2.50;;;;;;;0.67;100.00;99199.18;1685761;83;21628;-67
2022/02/08 02:49:05;;;;;;;5.00;3.12;;;;;;;0.66;100.00;99202.22;1709369;83;21836;-69
2022/02/08 02:51:33;;;;;;;5.33;3.10;;;;;;;0.67;100.00;99205.66;1711835;82;21057;-69
2022/02/08 02:54:00;;;;;;;5.60;2.27;;;;;;;0.65;100.00;99206.14;1706418;82;21155;-68
2022/02/08 02:56:27;;;;;;;7.33;3.22;;;;;;;0.67;100.00;99210.84;1711041;83;21112;-69
2022/02/08 02:59:02;;;;;;;4.53;2.50;;;;;;;0.66;100.00;99215.63;1709786;83;21144;-69
2022/02/08 03:01:31;;;;;;;4.92;2.65;;;;;;;0.68;100.00;99219.05;1708337;83;21488;-68
2022/02/08 03:04:06;;;;;;;5.62;2.55;;;;;;;0.67;100.00;99227.69;1703016;83;21045;-68
2022/02/08 03:19:55;;;;;;;7.95;3.85;;;;;;;0.57;100.00;99244.63;1676644;83;21041;-67
2022/02/08 03:22:22;;;;;;;5.00;2.22;;;;;;;0.56;100.00;99253.30;1707424;82;21018;-69
2022/02/08 03:24:49;;;;;;;4.22;2.30;;;;;;;0.57;100.00;99258.88;1706851;82;21597;-68
2022/02/08 03:27:15;;;;;;;6.40;2.47;;;;;;;0.58;100.00;99261.91;1709177;83;21165;-68
2022/02/08 03:29:43;;;;;;;6.05;2.40;;;;;;;0.58;100.00;99261.06;1709160;83;21142;-69
2022/02/08 03:32:10;;;;;;;4.47;2.72;;;;;;;0.57;100.00;99270.98;1711208;83;21007;-69
2022/02/08 03:34:37;;;;;;;5.87;2.62;;;;;;;0.53;100.00;99275.36;1709326;83;21530;-68
2022/02/08 03:37:04;;;;;;;6.25;2.83;;;;;;;0.58;100.00;99282.64;1710776;83;21026;-68
2022/02/08 03:39:36;;;;;;;6.22;2.58;;;;;;;0.53;100.00;99280.54;1709392;83;21129;-68
2022/02/08 03:42:16;;;;;;;5.00;2.40;;;;;;;0.58;100.00;99294.30;1710651;82;22167;-67
2022/02/08 03:44:45;;;;;;;5.85;2.95;;;;;;;0.59;100.00;99288.23;1710359;83;21454;-68
2022/02/08 03:47:09;;;;;;;;;;;;;;;0.52;100.00;99289.16;1711265;83;21050;-68
2022/02/08 03:49:40;;;;;;;6.67;2.25;;;;;;;0.50;100.00;99287.47;1710732;83;20201;-68
2022/02/08 03:52:07;;;;;;;4.28;2.52;;;;;;;0.47;100.00;99296.13;1709679;83;21100;-68
2022/02/08 03:54:35;;;;;;;8.23;2.65;;;;;;;0.46;100.00;99307.37;1705090;83;21136;-68
2022/02/08 03:57:06;;;;;;;4.72;2.33;;;;;;;0.51;100.00;99304.75;1710998;83;21077;-68
2022/02/08 03:59:33;;;;;;;5.72;3.12;;;;;;;0.48;100.00;99312.08;1708237;82;21577;-68
2022/02/08 04:07:20;;;;;;;4.28;2.92;;;;;;;0.46;100.00;99316.45;1709946;83;21105;-69
2022/02/08 04:09:41;;;;;;;6.85;2.55;;;;;;;0.46;100.00;99328.11;1708400;82;21132;-68
2022/02/08 04:12:18;;;;;;;4.78;2.83;;;;;;;0.49;100.00;99325.92;1706033;83;20999;-67
2022/02/08 04:17:21;;;;;;;5.28;2.62;;;;;;;0.49;100.00;99338.43;1676612;83;21533;-68
2022/02/08 04:19:47;;;;;;;6.58;2.67;;;;;;;0.47;100.00;99337.58;1709271;83;21079;-67
2022/02/08 04:33:30;;;;;;;6.83;2.83;;;;;;;0.41;100.00;99370.00;1708637;83;21046;-69
2022/02/08 04:43:31;;;;;;;7.65;2.90;;;;;;;0.40;100.00;99394.20;1709121;83;22146;-69
2022/02/08 04:46:08;;;;;;;8.33;2.83;;;;;;;0.41;100.00;99399.38;1705649;83;21153;-69
2022/02/08 04:48:48;;;;;;;6.05;3.27;;;;;;;0.40;100.00;99400.23;1707503;83;21522;-70
2022/02/08 04:51:16;;;;;;;6.17;3.10;;;;;;;0.41;100.00;99406.27;1707918;82;21170;-69
2022/02/08 04:53:46;;;;;;;5.85;3.30;;;;;;;0.45;100.00;99408.41;1706944;83;21033;-69
2022/02/08 04:56:20;;;;;;;5.72;2.75;;;;;;;0.45;100.00;99411.00;1711483;83;21544;-69
2022/02/08 04:58:44;;;;;;;7.83;3.22;;;;;;;0.43;100.00;99418.78;1708366;82;21081;-69
2022/02/08 05:01:19;;;;;;;6.12;2.80;;;;;;;0.47;100.00;99417.89;1704611;83;21022;-69
2022/02/08 05:44:43;;;;;;;3.72;2.45;;;;;;;0.18;100.00;99491.47;1707713;83;21083;-70
2022/02/08 05:47:09;;;;;;;8.40;3.22;;;;;;;0.16;100.00;99498.80;1704763;83;21098;-70
2022/02/08 05:49:51;;;;;;;7.62;3.08;;;;;;;0.16;100.00;99500.09;1709876;83;21231;-69
2022/02/08 05:54:41;;;;;;;9.60;3.08;;;;;;;0.16;100.00;99506.16;1709156;83;21045;-70
2022/02/08 05:57:09;;;;;;;4.65;2.52;;;;;;;0.16;100.00;99516.52;1706994;83;21407;-70
2022/02/08 05:59:36;;;;;;;5.80;3.00;;;;;;;0.16;100.00;99513.03;1714846;82;21042;-68
2022/02/08 06:05:27;;;;;;;5.73;2.70;;;;;;;0.23;100.00;99524.23;1785639;79;22591;-69
2022/02/08 06:07:54;;;;;;;6.40;3.33;;;;;;;0.19;100.00;99525.55;1685623;84;21013;-68
2022/02/08 06:10:20;;;;;;;7.17;3.67;;;;;;;0.23;100.00;99527.70;1677195;83;22274;-70
2022/02/08 06:12:50;;;;;;;4.85;2.65;;;;;;;0.27;100.00;99533.71;1651461;84;21011;-70
2022/02/08 06:15:22;;;;;;;8.43;2.60;;;;;;;0.27;100.00;99531.13;1671271;83;21104;-70
2022/02/08 06:17:54;;;;;;;4.55;2.62;;;;;;;0.27;100.00;99536.30;1654399;84;21107;-70
2022/02/08 06:20:22;;;;;;;5.15;2.85;;;;;;;0.31;100.00;99538.88;1656486;84;21065;-68
2022/02/08 06:22:49;;;;;;;5.05;2.27;;;;;;;0.32;100.00;99539.31;1674026;84;21132;-69
2022/02/08 06:25:18;;;;;;;7.25;2.98;;;;;;;0.37;100.00;99540.59;1673530;85;21041;-70
2022/02/08 06:27:48;;;;;;;3.67;2.17;;;;;;;0.42;100.00;99542.71;1665846;83;21192;-70
2022/02/08 06:30:14;;;;;;;5.10;2.40;;;;;;;0.45;100.00;99553.05;1671717;83;21160;-71
2022/02/08 06:32:42;;;;;;;5.33;2.62;;;;;;;0.52;100.00;99552.58;1667726;83;21080;-71
2022/02/08 06:35:16;;;;;;;5.58;2.27;;;;;;;0.52;100.00;99546.96;1660703;83;21606;-71
2022/02/08 06:37:40;;;;;;;6.53;2.52;;;;;;;0.55;100.00;99553.44;1661538;83;21402;-71
2022/02/08 06:40:09;;;;;;;7.55;2.55;;;;;;;0.57;100.00;99554.27;1661701;83;21589;-70
2022/02/08 06:42:35;;;;;;;7.72;2.67;;;;;;;0.61;100.00;99557.27;1676356;83;21117;-71
2022/02/08 06:45:03;;;;;;;7.35;3.05;;;;;;;0.64;100.00;99548.61;1672809;83;21152;-69
2022/02/08 06:47:32;;;;;;;8.33;2.73;;;;;;;0.69;100.00;99549.88;1664816;83;21539;-70
2022/02/08 06:49:59;;;;;;;4.78;2.47;;;;;;;0.73;100.00;99561.95;1685412;83;21085;-70
2022/02/08 06:52:26;;;;;;;4.90;2.60;;;;;;;0.77;100.00;99571.45;1673947;83;21109;-70
2022/02/08 06:54:53;;;;;;;6.70;2.40;;;;;;;0.78;100.00;99570.56;1671094;83;21021;-71
2022/02/08 06:57:19;;;;;;;5.58;2.40;;;;;;;0.83;100.00;99577.89;1663498;84;21096;-70
2022/02/08 06:59:51;;;;;;;5.03;2.80;;;;;;;0.90;100.00;99585.17;1669334;83;21514;-70
2022/02/08 07:02:14;;;;;;;4.80;2.52;;;;;;;0.93;100.00;99587.32;1669984;83;21831;-70
2022/02/08 07:04:41;;;;;;;5.25;2.55;;;;;;;0.96;100.00;99596.36;1664943;83;21082;-71
2022/02/08 07:07:12;;;;;;;3.90;2.85;;;;;;;0.76;100.00;99556.75;1660156;84;21109;-71
2022/02/08 07:09:39;;;;;;;4.23;2.43;;;;;;;1.03;100.00;99599.78;1666754;84;21028;-71
2022/02/08 07:12:09;;;;;;;7.80;2.25;;;;;;;1.03;100.00;99605.82;1674309;84;21069;-72
2022/02/08 07:14:35;;;;;;;6.45;3.15;;;;;;;1.07;100.00;99609.71;1657530;85;21042;-71
2022/02/08 07:17:02;;;;;;;4.65;2.30;;;;;;;1.07;100.00;99609.71;1677366;84;21076;-71
2022/02/08 07:19:30;;;;;;;6.35;2.58;;;;;;;1.09;100.00;99603.64;1724074;82;21737;-71
2022/02/08 07:21:56;;;;;;;6.53;2.45;;;;;;;1.10;100.00;99608.38;1742085;82;21026;-70
2022/02/08 07:24:23;;;;;;;8.13;2.60;;;;;;;1.15;100.00;99614.39;1741978;82;21136;-71
2022/02/08 07:26:53;;;;;;;4.33;2.33;;;;;;;1.17;100.00;99613.95;1742039;81;20983;-70
2022/02/08 07:29:20;;;;;;;5.05;2.30;;;;;;;1.16;100.00;99611.80;1725734;81;21576;-70
2022/02/08 07:31:54;;;;;;;6.70;2.20;;;;;;;1.21;100.00;99631.22;1697932;84;22197;-71
2022/02/08 07:34:24;;;;;;;6.50;2.55;;;;;;;1.20;100.00;99629.52;1696530;84;21162;-71
2022/02/08 07:36:58;;;;;;;4.62;2.05;;;;;;;1.26;100.00;99630.74;1698974;84;21086;-71
2022/02/08 07:42:00;;;;;;;2.87;1.90;;;;;;;1.36;100.00;99640.64;1695706;84;21089;-70
2022/02/08 07:44:27;;;;;;;5.72;2.00;;;;;;;1.42;100.00;99649.21;1684004;84;21068;-70
2022/02/08 07:46:55;;;;;;;6.50;2.12;;;;;;;1.44;100.00;99658.30;1683746;84;21103;-69
2022/02/08 07:49:23;;;;;;;5.50;2.30;;;;;;;1.51;100.00;99656.52;1688947;84;21052;-70
2022/02/08 07:51:49;;;;;;;4.55;2.00;;;;;;;1.57;100.00;99656.48;1696470;84;22306;-71
2022/02/08 07:54:16;;;;;;;5.42;2.22;;;;;;;1.61;100.00;99665.94;1679579;84;21123;-70
2022/02/08 07:56:42;;;;;;;3.52;1.70;;;;;;;1.65;100.00;99665.05;1628008;87;21107;-71
2022/02/08 07:59:09;;;;;;;6.22;1.72;;;;;;;1.70;100.00;99671.05;1692553;84;21068;-70
2022/02/08 08:01:35;;;;;;;6.45;2.20;;;;;;;1.72;100.00;99675.80;1686825;84;21994;-70
2022/02/08 08:04:03;;;;;;;3.65;1.87;;;;;;;1.75;100.00;99682.70;1692153;82;21085;-70
2022/02/08 08:06:30;;;;;;;6.10;2.02;;;;;;;1.73;100.00;99686.63;1692633;84;21108;-70
2022/02/08 08:08:58;;;;;;;5.40;2.02;;;;;;;1.78;100.00;99691.78;1688720;84;21061;-71
2022/02/08 08:11:26;;;;;;;4.70;2.05;;;;;;;1.82;100.00;99696.94;1677857;84;21564;-71
2022/02/08 08:14:01;;;;;;;3.42;1.80;;;;;;;1.80;100.00;99704.31;1687364;84;21132;-70
2022/02/08 08:16:41;;;;;;;4.05;1.90;;;;;;;1.83;100.00;99711.63;1695755;84;21079;-70
2022/02/08 08:19:19;;;;;;;6.37;1.80;;;;;;;1.85;100.00;99708.58;1677712;84;21467;-70
2022/02/08 08:21:34;;;;;;;4.33;1.95;;;;;;;1.93;100.00;99722.79;1629871;87;21120;-70
2022/02/08 08:24:01;;;;;;;5.62;1.82;;;;;;;1.93;100.00;99722.79;1673667;85;21123;-71
2022/02/08 08:26:28;;;;;;;4.83;2.20;;;;;;;2.02;100.00;99729.65;1680716;82;21079;-71
2022/02/08 08:28:54;;;;;;;3.30;1.75;;;;;;;2.02;100.00;99729.65;1689185;84;21648;-70
2022/02/08 08:31:21;;;;;;;4.50;2.30;;;;;;;2.02;100.00;99736.14;1689427;84;21037;-71
2022/02/08 08:33:48;;;;;;;4.92;2.12;;;;;;;2.02;100.00;99742.63;1689404;84;21113;-70
2022/02/08 08:36:17;;;;;;;4.58;1.92;;;;;;;2.07;100.00;99737.84;1689421;84;21018;-70
2022/02/08 08:38:43;;;;;;;3.15;1.70;;;;;;;2.06;100.00;99740.00;1675423;84;21827;-71
2022/02/08 08:41:21;;;;;;;3.52;1.82;;;;;;;2.08;100.00;99747.78;1674190;84;21064;-71
2022/02/08 08:43:58;;;;;;;3.17;1.72;;;;;;;2.13;100.00;99753.80;1635021;86;21104;-70
2022/02/08 08:51:44;;;;;;;6.08;1.72;;;;;;;2.24;100.00;99761.06;1698933;84;21151;-70
2022/02/08 08:54:10;;;;;;;3.92;1.55;;;;;;;2.23;99.84;99767.56;1632004;87;21072;-70
2022/02/08 08:56:38;;;;;;;6.80;2.10;;;;;;;2.22;98.68;99769.30;1673675;85;21029;-70
2022/02/08 08:59:07;;;;;;;3.17;1.60;;;;;;;2.18;97.22;99765.00;1674022;84;21640;-71
2022/02/08 09:01:33;;;;;;;2.67;1.37;;;;;;;2.22;96.11;99765.85;1632002;87;21111;-70
2022/02/08 09:04:01;;;;;;;3.83;1.60;;;;;;;2.22;96.11;99765.85;1673939;84;21974;-70
2022/02/08 09:06:27;;;;;;;3.83;1.60;;;;;;;2.23;96.53;99769.75;1673632;84;21104;-70
2022/02/08 09:08:55;;;;;;;7.08;1.62;;;;;;;2.34;96.83;99772.67;1611457;87;21644;-71
2022/02/08 09:13:58;;;;;;;5.85;1.27;;;;;;;2.47;93.93;99782.08;1688672;84;21584;-70
2022/02/08 09:16:46;;;;;;;4.65;1.70;;;;;;;2.50;92.41;99778.14;1687994;83;21155;-71
2022/02/08 09:21:48;;;;;;;3.17;1.60;;;;;;;2.75;93.78;99774.00;1707417;82;21081;-70
2022/02/08 09:29:24;;;;;;;2.92;1.30;;;;;;;3.09;88.68;99780.53;1681816;84;21049;-70
2022/02/08 09:31:59;;;;;;;4.00;1.17;;;;;;;3.24;84.81;99781.22;1701845;83;21136;-70
2022/02/08 09:34:18;;;;;;;3.12;1.22;;;;;;;3.32;85.86;99780.24;1700885;84;21093;-70
2022/02/08 09:36:46;;;;;;;3.22;1.30;;;;;;;3.46;82.45;99777.45;1701975;84;21112;-70
2022/02/08 09:39:12;;;;;;;2.52;1.27;;;;;;;3.68;82.96;99768.02;1702019;84;21045;-70
2022/02/08 09:41:39;;;;;;;2.72;1.07;;;;;;;3.81;79.81;99775.23;1701950;84;21164;-70
2022/02/08 09:44:05;;;;;;;1.80;0.90;;;;;;;3.84;77.17;99776.47;1701779;84;21815;-70
2022/02/08 09:46:37;;;;;;;2.37;1.30;;;;;;;3.76;75.98;99780.50;1701994;84;21611;-72
2022/02/08 09:49:03;;;;;;;2.37;1.10;;;;;;;3.76;76.36;99783.11;1701975;84;21041;-71
2022/02/08 09:51:30;;;;;;;2.55;1.07;;;;;;;3.72;74.44;99778.83;1658658;86;21060;-70
2022/02/08 09:54:00;;;;;;;3.45;1.15;;;;;;;3.60;74.92;99774.66;1693758;83;23365;-69
2022/02/08 09:56:27;;;;;;;2.80;1.60;;;;;;;3.59;77.36;99783.37;1696435;83;21076;-70
2022/02/08 09:58:54;;;;;;;3.40;0.90;;;;;;;3.58;77.46;99780.33;1684503;83;21529;-70
2022/02/08 10:01:24;;;;;;;2.20;1.00;;;;;;;3.57;76.04;99787.28;1676076;84;21092;-70
2022/02/08 10:04:00;;;;;;;2.00;1.00;;;;;;;3.60;77.25;99785.52;1677774;84;21088;-70
2022/02/08 10:06:29;;;;;;;2.15;1.05;;;;;;;3.56;75.97;99789.89;1676943;84;21563;-69
2022/02/08 10:09:04;;;;;;;3.00;1.20;;;;;;;3.50;73.31;99782.19;1688216;84;21520;-70
2022/02/08 10:11:55;;;;;;;2.40;1.07;;;;;;;3.46;79.39;99781.36;1682287;84;21096;-69
2022/02/08 10:14:38;;;;;;;2.08;1.12;;;;;;;3.40;75.62;99772.77;1685788;84;21052;-70
2022/02/08 10:20:07;;;;;;;2.60;0.80;;;;;;;3.56;77.61;99773.83;1691771;82;21170;-70
2022/02/08 10:22:21;;;;;;;3.95;1.02;;;;;;;3.56;70.84;99773.83;1699015;84;21028;-71
2022/02/08 10:24:50;;;;;;;4.47;1.25;;;;;;;3.58;68.66;99781.63;1690376;83;21018;-69
2022/02/08 10:27:29;;;;;;;2.70;0.95;;;;;;;3.58;70.16;99782.48;1683690;84;21648;-70
2022/02/08 10:37:38;;;;;;;2.60;1.12;;;;;;;3.53;69.79;99786.90;1673486;85;21163;-69
2022/02/08 10:38:00;;;;;;;5.30;1.40;;;;;;;3.29;64.23;99785.91;1673554;85;21064;-69
2022/02/08 10:40:26;;;;;;;3.67;1.27;;;;;;;3.22;65.07;99793.38;1673930;85;21521;-69
2022/02/08 10:43:03;;;;;;;3.83;1.10;;;;;;;3.15;69.37;99785.67;1704317;83;21564;-69
2022/02/08 10:45:35;;;;;;;4.58;1.60;;;;;;;3.10;64.27;99779.64;1697434;83;21977;-70
2022/02/08 10:48:09;;;;;;;3.90;1.20;;;;;;;3.06;65.59;99781.88;1683745;84;21319;-69
2022/02/08 10:50:40;;;;;;;2.58;1.10;;;;;;;3.03;66.33;99780.59;1694680;83;21115;-70
2022/02/08 10:53:08;;;;;;;3.00;0.98;;;;;;;2.98;63.87;99777.20;1702078;84;21022;-70
2022/02/08 10:55:47;;;;;;;3.08;1.17;;;;;;;2.97;68.29;99783.29;1691477;84;21064;-70
2022/02/08 11:03:19;;;;;;;4.50;1.30;;;;;;;3.10;70.26;99775.73;1694492;84;21116;-70
2022/02/08 11:05:48;;;;;;;2.55;1.10;;;;;;;3.07;65.66;99777.08;1682560;84;21056;-70
2022/02/08 11:13:43;;;;;;;3.33;1.22;;;;;;;3.25;64.78;99777.30;1695614;84;21552;-69
2022/02/08 11:16:25;;;;;;;4.28;1.37;;;;;;;3.25;64.04;99776.45;1630478;87;21720;-71
2022/02/08 11:19:10;;;;;;;3.47;1.10;;;;;;;3.22;68.04;99775.16;1690257;84;21093;-71
2022/02/08 11:21:43;;;;;;;2.42;0.90;;;;;;;3.15;63.50;99784.38;1682189;83;21084;-70
2022/02/08 11:24:24;;;;;;;2.77;1.25;;;;;;;3.08;65.24;99785.33;1670757;82;21053;-70
2022/02/08 11:26:46;;;;;;;4.05;1.10;;;;;;;3.01;65.70;99785.40;1714025;82;22175;-71
2022/02/08 11:29:40;;;;;;;3.10;1.02;;;;;;;2.96;64.20;99789.36;1706101;82;21157;-70
2022/02/08 11:32:54;;;;;;;2.33;1.00;;;;;;;3.02;70.99;99785.84;1716705;82;21057;-69
2022/02/08 11:46:05;;;;;;;2.47;1.00;;;;;;;2.97;64.03;99794.11;1702634;82;21596;-70
2022/02/08 11:54:31;;;;;;;3.40;1.12;;;;;;;2.88;64.70;99795.09;1684708;82;21116;-69
2022/02/08 11:59:54;;;;;;;1.70;1.00;;;;;;;2.95;69.23;99799.35;1709375;82;21054;-70
2022/02/08 12:05:22;;;;;;;4.15;0.90;;;;;;;2.93;65.94;99798.06;1700636;82;21485;-70
2022/02/08 12:07:37;;;;;;;3.10;0.95;;;;;;;2.92;69.11;99803.27;1693050;82;21125;-69
2022/02/08 12:10:19;;;;;;;1.02;0.82;;;;;;;2.90;65.83;99811.55;1635803;85;21104;-70
2022/02/08 12:13:09;;;;;;;3.45;1.00;;;;;;;2.93;65.85;99805.00;1697435;82;21045;-71
2022/02/08 12:59:25;;;;;;;2.80;1.20;;;;;;;2.91;68.76;99844.03;1679908;84;21112;-69
2022/02/08 13:05:03;;;;;;;2.27;1.22;;;;;;;2.91;66.64;99854.44;1702202;84;21077;-70
2022/02/08 14:21:24;;;;;;;9.28;3.20;;;;;;;2.23;67.99;99872.37;1699629;84;21199;-69
2022/02/08 14:23:56;;;;;;;7.45;2.75;;;;;;;2.20;68.86;99872.37;1695115;84;21638;-71
2022/02/08 14:29:31;;;;;;;14.35;5.17;;;;;;;2.08;66.76;99878.97;1676548;84;21075;-70
2022/02/08 14:59:42;;;;;;;9.85;3.02;;;;;;;1.57;68.07;99882.28;1620615;87;21130;-71
2022/02/08 15:07:01;;;;;;;6.00;2.72;;;;;;;1.51;70.16;99882.30;1637972;87;21083;-70
2022/02/08 15:09:08;;;;;;;6.05;3.10;;;;;;;1.49;69.67;99877.55;1609807;88;21610;-70
2022/02/08 15:11:47;;;;;;;7.20;2.90;;;;;;;1.46;70.97;99880.58;1607013;88;21077;-70
2022/02/08 15:14:03;;;;;;;5.92;2.55;;;;;;;1.44;69.30;99881.45;1599045;89;21159;-70
2022/02/08 15:16:35;;;;;;;6.40;2.17;;;;;;;1.42;69.99;99894.42;1627881;87;21738;-70
2022/02/08 15:18:59;;;;;;;7.12;2.65;;;;;;;1.39;73.01;99891.85;1618594;87;21113;-70
2022/02/08 15:21:31;;;;;;;5.83;2.90;;;;;;;1.39;69.90;99893.16;1630503;86;21081;-70
2022/02/08 15:23:55;;;;;;;6.58;2.47;;;;;;;1.38;73.36;99892.73;1604287;89;21537;-70
2022/02/08 15:26:21;;;;;;;7.17;2.40;;;;;;;1.35;70.77;99900.51;1631849;87;21112;-70
2022/02/08 15:28:48;;;;;;;5.53;2.33;;;;;;;1.34;70.45;99892.75;1643270;86;21045;-70
2022/02/08 15:31:17;;;;;;;6.05;3.25;;;;;;;1.34;72.39;99897.50;1651447;86;21029;-68
2022/02/08 15:33:44;;;;;;;7.03;3.47;;;;;;;1.34;70.65;99893.61;1640703;86;21077;-70
2022/02/08 15:36:15;;;;;;;5.37;2.50;;;;;;;1.34;72.74;99895.34;1631842;87;21108;-70
2022/02/08 15:38:40;;;;;;;5.87;2.45;;;;;;;1.35;71.68;99903.10;1632150;87;21860;-69
2022/02/08 15:41:09;;;;;;;4.95;2.60;;;;;;;1.34;70.16;99901.39;1642781;86;21077;-70
2022/02/08 15:43:36;;;;;;;5.35;2.37;;;;;;;1.31;71.27;99903.12;1637640;86;21089;-71
2022/02/08 15:46:09;;;;;;;6.30;2.62;;;;;;;1.29;70.50;99912.22;1636520;86;21323;-70
2022/02/08 15:48:33;;;;;;;5.67;2.70;;;;;;;1.28;70.87;99907.88;1654285;85;21074;-70
2022/02/08 15:51:14;;;;;;;6.78;3.02;;;;;;;1.31;73.57;99905.71;1632863;87;21562;-70
2022/02/08 16:09:00;;;;;;;8.88;3.58;;;;;;;1.19;72.84;99901.42;1655290;85;21176;-70
2022/02/08 16:21:41;;;;;;;7.78;3.83;;;;;;;1.11;72.38;99895.41;1670993;83;21023;-70
2022/02/08 16:24:08;;;;;;;8.50;3.77;;;;;;;1.10;73.77;99896.26;1620755;87;21026;-69
2022/02/08 16:56:52;;;;;;;7.87;2.58;;;;;;;0.97;74.70;99909.27;1667854;86;21198;-69
2022/02/08 16:58:57;;;;;;;6.05;2.95;;;;;;;0.97;75.67;99909.70;1663604;86;21100;-69
2022/02/08 17:01:28;;;;;;;9.25;3.47;;;;;;;0.96;74.26;99912.70;1660635;86;21625;-70
2022/02/08 17:03:53;;;;;;;8.98;3.25;;;;;;;0.96;77.13;99904.92;1666734;86;21108;-70
2022/02/08 17:06:23;;;;;;;8.70;3.52;;;;;;;0.95;76.33;99908.39;1662365;86;21680;-70
2022/02/08 17:09:02;;;;;;;13.58;5.80;;;;;;;0.95;76.78;99906.24;1667714;84;22260;-71
2022/02/08 17:11:26;;;;;;;9.50;3.67;;;;;;;0.94;78.32;99909.24;1663660;86;21072;-69
2022/02/08 17:14:14;;;;;;;7.33;3.08;;;;;;;0.93;76.34;99907.53;1665367;86;21136;-70
2022/02/08 17:34:25;;;;;;;9.55;3.55;;;;;;;0.93;77.88;99911.86;1627287;86;21105;-69
2022/02/08 17:48:21;;;;;;;20.75;8.08;;;;;;;0.87;82.73;99916.60;1633505;87;21743;-69
2022/02/08 17:50:48;;;;;;;22.55;8.55;;;;;;;0.85;81.44;99922.22;1631410;87;21556;-69
2022/02/08 17:53:19;;;;;;;35.28;15.93;;;;;;;0.86;80.61;99920.08;1620768;87;21093;-70
2022/02/08 17:55:45;;;;;;;15.63;6.87;;;;;;;0.83;80.03;99916.20;1606492;89;21109;-69
2022/02/08 17:58:12;;;;;;;16.20;6.55;;;;;;;0.84;78.56;99912.73;1630576;87;21358;-69
2022/02/08 18:00:39;;;;;;;11.20;5.30;;;;;;;0.86;79.39;99916.19;1620451;87;21136;-70
2022/02/08 18:03:06;;;;;;;13.15;5.05;;;;;;;0.87;81.11;99917.90;1623440;86;21126;-70
2022/02/08 18:05:32;;;;;;;14.10;4.95;;;;;;;0.87;77.93;99910.13;1606228;89;21149;-69
2022/02/08 18:07:59;;;;;;;15.65;5.03;;;;;;;0.87;79.62;99907.53;1633483;87;21077;-69
2022/02/08 18:10:28;;;;;;;15.88;5.58;;;;;;;0.86;78.30;99911.00;1631727;86;21128;-69
2022/02/08 18:13:02;;;;;;;14.50;5.80;;;;;;;0.87;77.46;99911.42;1623801;86;21058;-69
2022/02/08 18:15:36;;;;;;;14.20;6.17;;;;;;;0.85;79.85;99901.48;1630890;87;21573;-69